sensor_id;sensor_type;location;lat;lon;timestamp;P1;durP1;ratioP1;P2;durP2;ratioP2
19006;SDS011;9636;47.382;8.480;2023-03-08T00:00:11;4.00;;;3.23;;
19006;SDS011;9636;47.382;8.480;2023-03-08T00:02:40;4.00;;;3.40;;
19006;SDS011;9636;47.382;8.480;2023-03-08T00:05:08;4.23;;;3.43;;
19006;SDS011;9636;47.382;8.480;2023-03-08T00:07:35;5.00;;;3.83;;
19006;SDS011;9636;47.382;8.480;2023-03-08T00:10:02;4.40;;;3.23;;
19006;SDS011;9636;47.382;8.480;2023-03-08T00:12:29;3.80;;;3.20;;
19006;SDS011;9636;47.382;8.480;2023-03-08T00:14:57;4.20;;;3.30;;
19006;SDS011;9636;47.382;8.480;2023-03-08T00:17:24;4.50;;;3.40;;
19006;SDS011;9636;47.382;8.480;2023-03-08T00:19:52;4.93;;;3.40;;
19006;SDS011;9636;47.382;8.480;2023-03-08T00:22:19;4.17;;;3.33;;
19006;SDS011;9636;47.382;8.480;2023-03-08T00:24:46;4.67;;;3.63;;
19006;SDS011;9636;47.382;8.480;2023-03-08T00:27:13;4.93;;;3.33;;
19006;SDS011;9636;47.382;8.480;2023-03-08T00:29:41;4.53;;;3.30;;
19006;SDS011;9636;47.382;8.480;2023-03-08T00:32:08;4.40;;;3.40;;
19006;SDS011;9636;47.382;8.480;2023-03-08T00:34:35;4.03;;;3.40;;
19006;SDS011;9636;47.382;8.480;2023-03-08T00:37:03;4.60;;;3.20;;
19006;SDS011;9636;47.382;8.480;2023-03-08T00:39:30;4.43;;;3.60;;
19006;SDS011;9636;47.382;8.480;2023-03-08T00:41:57;3.73;;;3.27;;
19006;SDS011;9636;47.382;8.480;2023-03-08T00:44:25;4.50;;;3.30;;
19006;SDS011;9636;47.382;8.480;2023-03-08T00:46:52;6.00;;;3.60;;
19006;SDS011;9636;47.382;8.480;2023-03-08T00:49:19;4.20;;;3.17;;
19006;SDS011;9636;47.382;8.480;2023-03-08T00:51:46;3.97;;;3.27;;
19006;SDS011;9636;47.382;8.480;2023-03-08T00:54:15;4.90;;;3.30;;
19006;SDS011;9636;47.382;8.480;2023-03-08T00:56:42;4.20;;;3.00;;
19006;SDS011;9636;47.382;8.480;2023-03-08T00:59:09;4.57;;;3.67;;
19006;SDS011;9636;47.382;8.480;2023-03-08T01:01:36;5.27;;;3.30;;
19006;SDS011;9636;47.382;8.480;2023-03-08T01:04:03;4.83;;;3.27;;
19006;SDS011;9636;47.382;8.480;2023-03-08T01:06:30;4.23;;;3.27;;
19006;SDS011;9636;47.382;8.480;2023-03-08T01:08:57;4.83;;;3.50;;
19006;SDS011;9636;47.382;8.480;2023-03-08T01:11:26;3.67;;;3.20;;
19006;SDS011;9636;47.382;8.480;2023-03-08T01:13:53;4.03;;;3.20;;
19006;SDS011;9636;47.382;8.480;2023-03-08T01:16:21;4.27;;;3.33;;
19006;SDS011;9636;47.382;8.480;2023-03-08T01:18:49;4.47;;;3.03;;
19006;SDS011;9636;47.382;8.480;2023-03-08T01:21:16;4.50;;;3.70;;
19006;SDS011;9636;47.382;8.480;2023-03-08T01:23:43;3.97;;;3.30;;
19006;SDS011;9636;47.382;8.480;2023-03-08T01:26:11;4.07;;;3.10;;
19006;SDS011;9636;47.382;8.480;2023-03-08T01:28:40;4.10;;;3.37;;
19006;SDS011;9636;47.382;8.480;2023-03-08T01:31:08;4.70;;;3.60;;
19006;SDS011;9636;47.382;8.480;2023-03-08T01:33:37;3.93;;;3.40;;
19006;SDS011;9636;47.382;8.480;2023-03-08T01:36:04;5.83;;;3.47;;
19006;SDS011;9636;47.382;8.480;2023-03-08T01:38:32;4.03;;;3.33;;
19006;SDS011;9636;47.382;8.480;2023-03-08T01:41:00;4.43;;;3.63;;
19006;SDS011;9636;47.382;8.480;2023-03-08T01:43:28;4.80;;;3.50;;
19006;SDS011;9636;47.382;8.480;2023-03-08T01:48:50;3.23;;;2.93;;
19006;SDS011;9636;47.382;8.480;2023-03-08T01:51:19;4.27;;;3.27;;
19006;SDS011;9636;47.382;8.480;2023-03-08T01:53:47;4.10;;;3.60;;
19006;SDS011;9636;47.382;8.480;2023-03-08T01:56:14;4.20;;;3.20;;
19006;SDS011;9636;47.382;8.480;2023-03-08T01:58:43;5.47;;;3.50;;
19006;SDS011;9636;47.382;8.480;2023-03-08T02:01:11;4.23;;;3.40;;
19006;SDS011;9636;47.382;8.480;2023-03-08T02:03:38;3.87;;;3.43;;
19006;SDS011;9636;47.382;8.480;2023-03-08T02:06:07;4.50;;;3.40;;
19006;SDS011;9636;47.382;8.480;2023-03-08T02:08:34;4.47;;;3.50;;
19006;SDS011;9636;47.382;8.480;2023-03-08T02:11:01;3.87;;;3.27;;
19006;SDS011;9636;47.382;8.480;2023-03-08T02:13:28;4.00;;;3.60;;
19006;SDS011;9636;47.382;8.480;2023-03-08T02:15:56;3.97;;;3.20;;
19006;SDS011;9636;47.382;8.480;2023-03-08T02:18:24;4.00;;;3.53;;
19006;SDS011;9636;47.382;8.480;2023-03-08T02:20:51;3.47;;;3.07;;
19006;SDS011;9636;47.382;8.480;2023-03-08T02:23:21;4.57;;;3.70;;
19006;SDS011;9636;47.382;8.480;2023-03-08T02:25:49;4.97;;;3.40;;
19006;SDS011;9636;47.382;8.480;2023-03-08T02:28:16;4.70;;;3.70;;
19006;SDS011;9636;47.382;8.480;2023-03-08T02:30:44;4.77;;;3.57;;
19006;SDS011;9636;47.382;8.480;2023-03-08T02:33:11;4.93;;;3.87;;
19006;SDS011;9636;47.382;8.480;2023-03-08T02:35:38;3.77;;;3.37;;
19006;SDS011;9636;47.382;8.480;2023-03-08T02:38:07;3.90;;;3.10;;
19006;SDS011;9636;47.382;8.480;2023-03-08T02:40:35;4.03;;;3.30;;
19006;SDS011;9636;47.382;8.480;2023-03-08T02:43:02;4.67;;;3.40;;
19006;SDS011;9636;47.382;8.480;2023-03-08T02:45:30;4.17;;;3.20;;
19006;SDS011;9636;47.382;8.480;2023-03-08T02:47:58;3.73;;;3.30;;
19006;SDS011;9636;47.382;8.480;2023-03-08T02:50:25;4.10;;;3.30;;
19006;SDS011;9636;47.382;8.480;2023-03-08T02:52:52;3.27;;;2.97;;
19006;SDS011;9636;47.382;8.480;2023-03-08T02:55:19;4.80;;;3.67;;
19006;SDS011;9636;47.382;8.480;2023-03-08T02:57:47;4.10;;;3.50;;
19006;SDS011;9636;47.382;8.480;2023-03-08T03:00:15;3.83;;;3.37;;
19006;SDS011;9636;47.382;8.480;2023-03-08T03:02:42;3.83;;;3.20;;
19006;SDS011;9636;47.382;8.480;2023-03-08T03:05:09;4.53;;;3.10;;
19006;SDS011;9636;47.382;8.480;2023-03-08T03:07:37;3.67;;;3.10;;
19006;SDS011;9636;47.382;8.480;2023-03-08T03:10:05;3.30;;;3.00;;
19006;SDS011;9636;47.382;8.480;2023-03-08T03:12:32;3.40;;;3.10;;
19006;SDS011;9636;47.382;8.480;2023-03-08T03:15:01;4.27;;;3.33;;
19006;SDS011;9636;47.382;8.480;2023-03-08T03:17:28;4.00;;;3.50;;
19006;SDS011;9636;47.382;8.480;2023-03-08T03:19:55;4.17;;;3.00;;
19006;SDS011;9636;47.382;8.480;2023-03-08T03:22:22;4.57;;;2.93;;
19006;SDS011;9636;47.382;8.480;2023-03-08T03:24:49;4.13;;;3.20;;
19006;SDS011;9636;47.382;8.480;2023-03-08T03:27:17;3.50;;;3.20;;
19006;SDS011;9636;47.382;8.480;2023-03-08T03:29:44;4.13;;;3.27;;
19006;SDS011;9636;47.382;8.480;2023-03-08T03:32:13;3.20;;;2.90;;
19006;SDS011;9636;47.382;8.480;2023-03-08T03:34:40;3.20;;;2.90;;
19006;SDS011;9636;47.382;8.480;2023-03-08T03:37:07;3.40;;;3.10;;
19006;SDS011;9636;47.382;8.480;2023-03-08T03:39:34;3.40;;;2.90;;
19006;SDS011;9636;47.382;8.480;2023-03-08T03:42:03;3.90;;;2.90;;
19006;SDS011;9636;47.382;8.480;2023-03-08T03:44:30;4.03;;;3.00;;
19006;SDS011;9636;47.382;8.480;2023-03-08T03:46:57;3.30;;;3.00;;
19006;SDS011;9636;47.382;8.480;2023-03-08T03:49:26;3.17;;;2.87;;
19006;SDS011;9636;47.382;8.480;2023-03-08T03:51:53;3.37;;;2.83;;
19006;SDS011;9636;47.382;8.480;2023-03-08T03:54:20;3.17;;;2.87;;
19006;SDS011;9636;47.382;8.480;2023-03-08T03:56:47;3.37;;;3.00;;
19006;SDS011;9636;47.382;8.480;2023-03-08T03:59:14;3.37;;;3.07;;
19006;SDS011;9636;47.382;8.480;2023-03-08T04:01:42;3.07;;;2.77;;
19006;SDS011;9636;47.382;8.480;2023-03-08T04:04:09;3.50;;;3.10;;
19006;SDS011;9636;47.382;8.480;2023-03-08T04:06:38;3.57;;;3.20;;
19006;SDS011;9636;47.382;8.480;2023-03-08T04:09:06;3.40;;;2.87;;
19006;SDS011;9636;47.382;8.480;2023-03-08T04:11:34;4.03;;;2.90;;
19006;SDS011;9636;47.382;8.480;2023-03-08T04:14:01;3.00;;;2.70;;
19006;SDS011;9636;47.382;8.480;2023-03-08T04:16:29;2.67;;;2.47;;
19006;SDS011;9636;47.382;8.480;2023-03-08T04:18:57;2.97;;;2.60;;
19006;SDS011;9636;47.382;8.480;2023-03-08T04:21:24;3.33;;;3.03;;
19006;SDS011;9636;47.382;8.480;2023-03-08T04:23:53;3.67;;;3.23;;
19006;SDS011;9636;47.382;8.480;2023-03-08T04:26:20;3.17;;;2.87;;
19006;SDS011;9636;47.382;8.480;2023-03-08T04:28:48;3.80;;;2.83;;
19006;SDS011;9636;47.382;8.480;2023-03-08T04:31:16;2.80;;;2.60;;
19006;SDS011;9636;47.382;8.480;2023-03-08T04:33:43;3.00;;;2.70;;
19006;SDS011;9636;47.382;8.480;2023-03-08T04:36:11;2.93;;;2.63;;
19006;SDS011;9636;47.382;8.480;2023-03-08T04:38:38;3.20;;;2.83;;
19006;SDS011;9636;47.382;8.480;2023-03-08T04:41:07;3.20;;;2.67;;
19006;SDS011;9636;47.382;8.480;2023-03-08T04:43:36;3.73;;;2.93;;
19006;SDS011;9636;47.382;8.480;2023-03-08T04:46:04;3.60;;;2.70;;
19006;SDS011;9636;47.382;8.480;2023-03-08T04:48:31;2.97;;;2.63;;
19006;SDS011;9636;47.382;8.480;2023-03-08T04:50:59;3.27;;;2.97;;
19006;SDS011;9636;47.382;8.480;2023-03-08T04:53:27;3.07;;;2.77;;
19006;SDS011;9636;47.382;8.480;2023-03-08T04:55:54;3.10;;;2.80;;
19006;SDS011;9636;47.382;8.480;2023-03-08T04:58:24;3.10;;;2.80;;
19006;SDS011;9636;47.382;8.480;2023-03-08T05:00:52;2.90;;;2.67;;
19006;SDS011;9636;47.382;8.480;2023-03-08T05:03:19;3.10;;;2.80;;
19006;SDS011;9636;47.382;8.480;2023-03-08T05:05:47;2.90;;;2.60;;
19006;SDS011;9636;47.382;8.480;2023-03-08T05:08:14;2.97;;;2.67;;
19006;SDS011;9636;47.382;8.480;2023-03-08T05:10:45;3.13;;;2.53;;
19006;SDS011;9636;47.382;8.480;2023-03-08T05:13:12;2.90;;;2.60;;
19006;SDS011;9636;47.382;8.480;2023-03-08T05:15:41;3.00;;;2.70;;
19006;SDS011;9636;47.382;8.480;2023-03-08T05:18:08;3.90;;;2.70;;
19006;SDS011;9636;47.382;8.480;2023-03-08T05:20:35;3.40;;;2.63;;
19006;SDS011;9636;47.382;8.480;2023-03-08T05:23:03;3.27;;;2.80;;
19006;SDS011;9636;47.382;8.480;2023-03-08T05:25:30;3.60;;;2.77;;
19006;SDS011;9636;47.382;8.480;2023-03-08T05:27:57;3.00;;;2.53;;
19006;SDS011;9636;47.382;8.480;2023-03-08T05:30:24;3.10;;;2.80;;
19006;SDS011;9636;47.382;8.480;2023-03-08T05:32:53;2.70;;;2.50;;
19006;SDS011;9636;47.382;8.480;2023-03-08T05:35:21;3.20;;;2.70;;
19006;SDS011;9636;47.382;8.480;2023-03-08T05:37:48;2.80;;;2.60;;
19006;SDS011;9636;47.382;8.480;2023-03-08T05:40:15;2.63;;;2.43;;
19006;SDS011;9636;47.382;8.480;2023-03-08T05:42:42;2.60;;;2.40;;
19006;SDS011;9636;47.382;8.480;2023-03-08T05:45:09;3.50;;;2.80;;
19006;SDS011;9636;47.382;8.480;2023-03-08T05:47:37;2.63;;;2.30;;
19006;SDS011;9636;47.382;8.480;2023-03-08T05:50:06;3.23;;;2.73;;
19006;SDS011;9636;47.382;8.480;2023-03-08T05:52:33;2.90;;;2.60;;
19006;SDS011;9636;47.382;8.480;2023-03-08T05:55:00;2.97;;;2.67;;
19006;SDS011;9636;47.382;8.480;2023-03-08T05:57:27;3.23;;;2.90;;
19006;SDS011;9636;47.382;8.480;2023-03-08T05:59:54;2.87;;;2.60;;
19006;SDS011;9636;47.382;8.480;2023-03-08T06:02:21;2.60;;;2.40;;
19006;SDS011;9636;47.382;8.480;2023-03-08T06:04:48;2.60;;;2.40;;
19006;SDS011;9636;47.382;8.480;2023-03-08T06:07:17;3.03;;;2.73;;
19006;SDS011;9636;47.382;8.480;2023-03-08T06:09:44;2.90;;;2.60;;
19006;SDS011;9636;47.382;8.480;2023-03-08T06:12:11;2.70;;;2.50;;
19006;SDS011;9636;47.382;8.480;2023-03-08T06:14:38;3.27;;;2.90;;
19006;SDS011;9636;47.382;8.480;2023-03-08T06:17:05;3.80;;;2.43;;
19006;SDS011;9636;47.382;8.480;2023-03-08T06:19:33;2.73;;;2.40;;
19006;SDS011;9636;47.382;8.480;2023-03-08T06:22:00;2.70;;;2.40;;
19006;SDS011;9636;47.382;8.480;2023-03-08T06:24:28;2.50;;;2.30;;
19006;SDS011;9636;47.382;8.480;2023-03-08T06:26:55;2.50;;;2.30;;
19006;SDS011;9636;47.382;8.480;2023-03-08T06:29:24;3.00;;;2.70;;
19006;SDS011;9636;47.382;8.480;2023-03-08T06:31:51;2.47;;;2.23;;
19006;SDS011;9636;47.382;8.480;2023-03-08T06:34:18;2.47;;;2.00;;
19006;SDS011;9636;47.382;8.480;2023-03-08T06:36:45;3.03;;;2.40;;
19006;SDS011;9636;47.382;8.480;2023-03-08T06:39:12;4.40;;;2.50;;
19006;SDS011;9636;47.382;8.480;2023-03-08T06:41:41;2.43;;;2.20;;
19006;SDS011;9636;47.382;8.480;2023-03-08T06:44:08;2.83;;;2.13;;
19006;SDS011;9636;47.382;8.480;2023-03-08T06:46:35;3.00;;;2.33;;
19006;SDS011;9636;47.382;8.480;2023-03-08T06:49:03;2.60;;;2.17;;
19006;SDS011;9636;47.382;8.480;2023-03-08T06:51:31;2.47;;;2.27;;
19006;SDS011;9636;47.382;8.480;2023-03-08T06:53:58;2.60;;;2.40;;
19006;SDS011;9636;47.382;8.480;2023-03-08T06:56:26;2.53;;;2.33;;
19006;SDS011;9636;47.382;8.480;2023-03-08T06:58:54;2.87;;;2.23;;
19006;SDS011;9636;47.382;8.480;2023-03-08T07:01:21;2.43;;;2.20;;
19006;SDS011;9636;47.382;8.480;2023-03-08T07:03:48;2.60;;;2.30;;
19006;SDS011;9636;47.382;8.480;2023-03-08T07:06:16;2.57;;;2.23;;
19006;SDS011;9636;47.382;8.480;2023-03-08T07:08:43;2.60;;;2.40;;
19006;SDS011;9636;47.382;8.480;2023-03-08T07:11:11;2.33;;;2.13;;
19006;SDS011;9636;47.382;8.480;2023-03-08T07:13:38;2.43;;;2.23;;
19006;SDS011;9636;47.382;8.480;2023-03-08T07:16:08;2.97;;;2.40;;
19006;SDS011;9636;47.382;8.480;2023-03-08T07:18:35;2.30;;;2.10;;
19006;SDS011;9636;47.382;8.480;2023-03-08T07:21:03;2.50;;;2.30;;
19006;SDS011;9636;47.382;8.480;2023-03-08T07:23:30;2.60;;;2.20;;
19006;SDS011;9636;47.382;8.480;2023-03-08T07:25:57;2.30;;;2.10;;
19006;SDS011;9636;47.382;8.480;2023-03-08T07:28:24;2.47;;;2.27;;
19006;SDS011;9636;47.382;8.480;2023-03-08T07:30:51;2.87;;;2.27;;
19006;SDS011;9636;47.382;8.480;2023-03-08T07:33:20;2.00;;;1.90;;
19006;SDS011;9636;47.382;8.480;2023-03-08T07:35:47;2.30;;;2.10;;
19006;SDS011;9636;47.382;8.480;2023-03-08T07:38:14;2.17;;;1.93;;
19006;SDS011;9636;47.382;8.480;2023-03-08T07:40:42;2.60;;;2.30;;
19006;SDS011;9636;47.382;8.480;2023-03-08T07:43:09;2.17;;;1.97;;
19006;SDS011;9636;47.382;8.480;2023-03-08T07:45:36;2.23;;;2.03;;
19006;SDS011;9636;47.382;8.480;2023-03-08T07:48:04;2.40;;;2.20;;
19006;SDS011;9636;47.382;8.480;2023-03-08T07:50:33;2.30;;;2.10;;
19006;SDS011;9636;47.382;8.480;2023-03-08T07:53:00;2.07;;;1.97;;
19006;SDS011;9636;47.382;8.480;2023-03-08T07:55:28;2.33;;;2.13;;
19006;SDS011;9636;47.382;8.480;2023-03-08T07:57:55;2.07;;;1.97;;
19006;SDS011;9636;47.382;8.480;2023-03-08T08:00:22;2.53;;;2.27;;
19006;SDS011;9636;47.382;8.480;2023-03-08T08:02:49;2.27;;;2.03;;
19006;SDS011;9636;47.382;8.480;2023-03-08T08:05:18;3.87;;;1.87;;
19006;SDS011;9636;47.382;8.480;2023-03-08T08:07:47;2.63;;;2.40;;
19006;SDS011;9636;47.382;8.480;2023-03-08T08:10:15;1.80;;;1.70;;
19006;SDS011;9636;47.382;8.480;2023-03-08T08:12:42;2.23;;;2.03;;
19006;SDS011;9636;47.382;8.480;2023-03-08T08:15:09;2.67;;;2.20;;
19006;SDS011;9636;47.382;8.480;2023-03-08T08:17:37;1.97;;;1.87;;
19006;SDS011;9636;47.382;8.480;2023-03-08T08:20:04;2.13;;;1.93;;
19006;SDS011;9636;47.382;8.480;2023-03-08T08:22:33;2.17;;;1.93;;
19006;SDS011;9636;47.382;8.480;2023-03-08T08:25:03;2.20;;;2.00;;
19006;SDS011;9636;47.382;8.480;2023-03-08T08:27:30;2.00;;;1.83;;
19006;SDS011;9636;47.382;8.480;2023-03-08T08:29:57;2.20;;;2.00;;
19006;SDS011;9636;47.382;8.480;2023-03-08T08:32:31;1.90;;;1.80;;
19006;SDS011;9636;47.382;8.480;2023-03-08T08:34:59;1.83;;;1.73;;
19006;SDS011;9636;47.382;8.480;2023-03-08T08:37:26;2.00;;;1.90;;
19006;SDS011;9636;47.382;8.480;2023-03-08T08:39:53;2.83;;;2.30;;
19006;SDS011;9636;47.382;8.480;2023-03-08T08:42:22;1.87;;;1.77;;
19006;SDS011;9636;47.382;8.480;2023-03-08T08:44:49;2.13;;;1.93;;
19006;SDS011;9636;47.382;8.480;2023-03-08T08:47:18;2.00;;;1.80;;
19006;SDS011;9636;47.382;8.480;2023-03-08T08:49:45;1.97;;;1.70;;
19006;SDS011;9636;47.382;8.480;2023-03-08T08:52:12;1.90;;;1.80;;
19006;SDS011;9636;47.382;8.480;2023-03-08T08:54:39;1.83;;;1.73;;
19006;SDS011;9636;47.382;8.480;2023-03-08T08:57:06;2.10;;;1.90;;
19006;SDS011;9636;47.382;8.480;2023-03-08T08:59:35;1.97;;;1.87;;
19006;SDS011;9636;47.382;8.480;2023-03-08T09:02:02;1.80;;;1.70;;
19006;SDS011;9636;47.382;8.480;2023-03-08T09:04:30;1.83;;;1.73;;
19006;SDS011;9636;47.382;8.480;2023-03-08T09:06:57;2.20;;;2.00;;
19006;SDS011;9636;47.382;8.480;2023-03-08T09:09:24;2.23;;;1.90;;
19006;SDS011;9636;47.382;8.480;2023-03-08T09:11:51;2.03;;;1.83;;
19006;SDS011;9636;47.382;8.480;2023-03-08T09:14:19;2.00;;;1.90;;
19006;SDS011;9636;47.382;8.480;2023-03-08T09:16:47;2.53;;;1.87;;
19006;SDS011;9636;47.382;8.480;2023-03-08T09:19:14;1.90;;;1.80;;
19006;SDS011;9636;47.382;8.480;2023-03-08T09:21:41;2.00;;;1.80;;
19006;SDS011;9636;47.382;8.480;2023-03-08T09:24:09;2.37;;;2.00;;
19006;SDS011;9636;47.382;8.480;2023-03-08T09:26:37;2.17;;;1.80;;
19006;SDS011;9636;47.382;8.480;2023-03-08T09:29:04;2.67;;;2.07;;
19006;SDS011;9636;47.382;8.480;2023-03-08T09:31:32;1.80;;;1.70;;
19006;SDS011;9636;47.382;8.480;2023-03-08T09:34:00;2.03;;;1.90;;
19006;SDS011;9636;47.382;8.480;2023-03-08T09:36:32;2.07;;;1.87;;
19006;SDS011;9636;47.382;8.480;2023-03-08T09:38:59;1.83;;;1.73;;
19006;SDS011;9636;47.382;8.480;2023-03-08T09:41:30;1.80;;;1.70;;
19006;SDS011;9636;47.382;8.480;2023-03-08T09:44:03;2.17;;;1.97;;
19006;SDS011;9636;47.382;8.480;2023-03-08T09:46:32;3.10;;;2.07;;
19006;SDS011;9636;47.382;8.480;2023-03-08T09:49:03;1.80;;;1.70;;
19006;SDS011;9636;47.382;8.480;2023-03-08T09:51:32;2.17;;;1.97;;
19006;SDS011;9636;47.382;8.480;2023-03-08T09:54:01;1.80;;;1.70;;
19006;SDS011;9636;47.382;8.480;2023-03-08T09:56:31;1.83;;;1.73;;
19006;SDS011;9636;47.382;8.480;2023-03-08T09:59:01;1.90;;;1.80;;
19006;SDS011;9636;47.382;8.480;2023-03-08T10:01:33;1.77;;;1.67;;
19006;SDS011;9636;47.382;8.480;2023-03-08T10:04:07;1.87;;;1.77;;
19006;SDS011;9636;47.382;8.480;2023-03-08T10:06:38;1.90;;;1.80;;
19006;SDS011;9636;47.382;8.480;2023-03-08T10:09:10;1.90;;;1.80;;
19006;SDS011;9636;47.382;8.480;2023-03-08T10:11:42;1.97;;;1.80;;
19006;SDS011;9636;47.382;8.480;2023-03-08T10:14:13;2.03;;;1.93;;
19006;SDS011;9636;47.382;8.480;2023-03-08T10:16:43;2.00;;;1.80;;
19006;SDS011;9636;47.382;8.480;2023-03-08T10:19:13;1.90;;;1.80;;
19006;SDS011;9636;47.382;8.480;2023-03-08T10:21:42;1.93;;;1.70;;
19006;SDS011;9636;47.382;8.480;2023-03-08T10:24:13;1.83;;;1.73;;
19006;SDS011;9636;47.382;8.480;2023-03-08T10:26:41;2.03;;;1.83;;
19006;SDS011;9636;47.382;8.480;2023-03-08T10:29:08;1.70;;;1.60;;
19006;SDS011;9636;47.382;8.480;2023-03-08T10:31:37;1.83;;;1.70;;
19006;SDS011;9636;47.382;8.480;2023-03-08T10:34:09;2.00;;;1.80;;
19006;SDS011;9636;47.382;8.480;2023-03-08T10:36:47;1.90;;;1.80;;
19006;SDS011;9636;47.382;8.480;2023-03-08T10:39:14;1.80;;;1.70;;
19006;SDS011;9636;47.382;8.480;2023-03-08T10:41:42;1.53;;;1.43;;
19006;SDS011;9636;47.382;8.480;2023-03-08T10:44:11;1.90;;;1.80;;
19006;SDS011;9636;47.382;8.480;2023-03-08T10:46:44;1.90;;;1.60;;
19006;SDS011;9636;47.382;8.480;2023-03-08T10:49:13;2.23;;;1.83;;
19006;SDS011;9636;47.382;8.480;2023-03-08T10:51:51;1.60;;;1.50;;
19006;SDS011;9636;47.382;8.480;2023-03-08T10:54:18;1.87;;;1.77;;
19006;SDS011;9636;47.382;8.480;2023-03-08T10:56:49;1.80;;;1.70;;
19006;SDS011;9636;47.382;8.480;2023-03-08T10:59:18;2.07;;;1.83;;
19006;SDS011;9636;47.382;8.480;2023-03-08T11:01:52;1.80;;;1.70;;
19006;SDS011;9636;47.382;8.480;2023-03-08T11:04:20;1.83;;;1.73;;
19006;SDS011;9636;47.382;8.480;2023-03-08T11:06:48;2.03;;;1.83;;
19006;SDS011;9636;47.382;8.480;2023-03-08T11:09:20;1.80;;;1.70;;
19006;SDS011;9636;47.382;8.480;2023-03-08T11:11:48;2.10;;;1.93;;
19006;SDS011;9636;47.382;8.480;2023-03-08T11:14:15;1.73;;;1.63;;
19006;SDS011;9636;47.382;8.480;2023-03-08T11:16:50;2.37;;;2.03;;
19006;SDS011;9636;47.382;8.480;2023-03-08T11:19:29;2.27;;;1.90;;
19006;SDS011;9636;47.382;8.480;2023-03-08T11:21:59;1.90;;;1.80;;
19006;SDS011;9636;47.382;8.480;2023-03-08T11:24:37;1.80;;;1.70;;
19006;SDS011;9636;47.382;8.480;2023-03-08T11:27:12;2.10;;;1.90;;
19006;SDS011;9636;47.382;8.480;2023-03-08T11:29:41;2.40;;;2.10;;
19006;SDS011;9636;47.382;8.480;2023-03-08T11:32:13;2.00;;;1.87;;
19006;SDS011;9636;47.382;8.480;2023-03-08T11:34:52;2.30;;;2.10;;
19006;SDS011;9636;47.382;8.480;2023-03-08T11:37:24;1.83;;;1.63;;
19006;SDS011;9636;47.382;8.480;2023-03-08T11:39:58;2.27;;;2.03;;
19006;SDS011;9636;47.382;8.480;2023-03-08T11:42:29;2.07;;;1.90;;
19006;SDS011;9636;47.382;8.480;2023-03-08T11:45:11;1.83;;;1.73;;
19006;SDS011;9636;47.382;8.480;2023-03-08T11:47:56;1.90;;;1.63;;
19006;SDS011;9636;47.382;8.480;2023-03-08T11:50:27;2.00;;;1.80;;
19006;SDS011;9636;47.382;8.480;2023-03-08T11:53:08;1.67;;;1.57;;
19006;SDS011;9636;47.382;8.480;2023-03-08T11:55:47;1.70;;;1.60;;
19006;SDS011;9636;47.382;8.480;2023-03-08T11:58:21;1.97;;;1.87;;
19006;SDS011;9636;47.382;8.480;2023-03-08T12:00:50;3.00;;;1.67;;
19006;SDS011;9636;47.382;8.480;2023-03-08T12:03:20;1.87;;;1.70;;
19006;SDS011;9636;47.382;8.480;2023-03-08T12:05:48;1.90;;;1.80;;
19006;SDS011;9636;47.382;8.480;2023-03-08T12:08:17;1.63;;;1.53;;
19006;SDS011;9636;47.382;8.480;2023-03-08T12:10:48;1.60;;;1.50;;
19006;SDS011;9636;47.382;8.480;2023-03-08T12:13:19;1.80;;;1.70;;
19006;SDS011;9636;47.382;8.480;2023-03-08T12:15:47;1.53;;;1.43;;
19006;SDS011;9636;47.382;8.480;2023-03-08T12:18:17;1.90;;;1.70;;
19006;SDS011;9636;47.382;8.480;2023-03-08T12:20:46;1.70;;;1.60;;
19006;SDS011;9636;47.382;8.480;2023-03-08T12:23:17;1.60;;;1.50;;
19006;SDS011;9636;47.382;8.480;2023-03-08T12:25:49;1.57;;;1.47;;
19006;SDS011;9636;47.382;8.480;2023-03-08T12:28:19;1.70;;;1.60;;
19006;SDS011;9636;47.382;8.480;2023-03-08T12:30:52;1.70;;;1.60;;
19006;SDS011;9636;47.382;8.480;2023-03-08T12:33:20;1.57;;;1.47;;
19006;SDS011;9636;47.382;8.480;2023-03-08T12:35:49;1.57;;;1.47;;
19006;SDS011;9636;47.382;8.480;2023-03-08T12:41:20;1.90;;;1.40;;
19006;SDS011;9636;47.382;8.480;2023-03-08T12:43:57;1.40;;;1.30;;
19006;SDS011;9636;47.382;8.480;2023-03-08T12:46:24;1.50;;;1.40;;
19006;SDS011;9636;47.382;8.480;2023-03-08T12:48:51;2.63;;;1.60;;
19006;SDS011;9636;47.382;8.480;2023-03-08T12:51:19;1.80;;;1.70;;
19006;SDS011;9636;47.382;8.480;2023-03-08T12:53:54;1.60;;;1.50;;
19006;SDS011;9636;47.382;8.480;2023-03-08T12:56:24;1.50;;;1.33;;
19006;SDS011;9636;47.382;8.480;2023-03-08T12:58:53;1.43;;;1.33;;
19006;SDS011;9636;47.382;8.480;2023-03-08T13:01:32;1.60;;;1.50;;
19006;SDS011;9636;47.382;8.480;2023-03-08T13:03:59;1.60;;;1.50;;
19006;SDS011;9636;47.382;8.480;2023-03-08T13:09:14;1.50;;;1.40;;
19006;SDS011;9636;47.382;8.480;2023-03-08T13:11:46;1.50;;;1.40;;
19006;SDS011;9636;47.382;8.480;2023-03-08T13:14:25;1.80;;;1.40;;
19006;SDS011;9636;47.382;8.480;2023-03-08T13:16:53;1.60;;;1.50;;
19006;SDS011;9636;47.382;8.480;2023-03-08T13:19:22;1.60;;;1.50;;
19006;SDS011;9636;47.382;8.480;2023-03-08T13:21:52;1.70;;;1.60;;
19006;SDS011;9636;47.382;8.480;2023-03-08T13:24:26;1.60;;;1.50;;
19006;SDS011;9636;47.382;8.480;2023-03-08T13:27:00;1.67;;;1.57;;
19006;SDS011;9636;47.382;8.480;2023-03-08T13:29:31;1.37;;;1.27;;
19006;SDS011;9636;47.382;8.480;2023-03-08T13:32:03;1.50;;;1.40;;
19006;SDS011;9636;47.382;8.480;2023-03-08T13:34:31;1.48;;;1.38;;
19006;SDS011;9636;47.382;8.480;2023-03-08T13:36:59;1.43;;;1.33;;
19006;SDS011;9636;47.382;8.480;2023-03-08T13:39:27;1.60;;;1.50;;
19006;SDS011;9636;47.382;8.480;2023-03-08T13:42:05;1.30;;;1.20;;
19006;SDS011;9636;47.382;8.480;2023-03-08T13:44:32;1.27;;;1.20;;
19006;SDS011;9636;47.382;8.480;2023-03-08T13:47:02;1.40;;;1.30;;
19006;SDS011;9636;47.382;8.480;2023-03-08T13:49:30;1.50;;;1.40;;
19006;SDS011;9636;47.382;8.480;2023-03-08T13:51:59;1.40;;;1.30;;
19006;SDS011;9636;47.382;8.480;2023-03-08T13:54:28;1.50;;;1.40;;
19006;SDS011;9636;47.382;8.480;2023-03-08T13:56:56;1.43;;;1.33;;
19006;SDS011;9636;47.382;8.480;2023-03-08T13:59:25;1.40;;;1.30;;
19006;SDS011;9636;47.382;8.480;2023-03-08T14:01:52;1.50;;;1.40;;
19006;SDS011;9636;47.382;8.480;2023-03-08T14:04:20;1.30;;;1.20;;
19006;SDS011;9636;47.382;8.480;2023-03-08T14:06:48;1.50;;;1.40;;
19006;SDS011;9636;47.382;8.480;2023-03-08T14:09:16;1.30;;;1.20;;
19006;SDS011;9636;47.382;8.480;2023-03-08T14:11:43;1.65;;;1.50;;
19006;SDS011;9636;47.382;8.480;2023-03-08T14:14:13;1.40;;;1.30;;
19006;SDS011;9636;47.382;8.480;2023-03-08T14:16:43;1.20;;;1.20;;
19006;SDS011;9636;47.382;8.480;2023-03-08T14:19:11;1.40;;;1.30;;
19006;SDS011;9636;47.382;8.480;2023-03-08T14:21:45;1.30;;;1.20;;
19006;SDS011;9636;47.382;8.480;2023-03-08T14:24:14;1.60;;;1.50;;
19006;SDS011;9636;47.382;8.480;2023-03-08T14:26:52;1.30;;;1.20;;
19006;SDS011;9636;47.382;8.480;2023-03-08T14:29:19;1.40;;;1.30;;
19006;SDS011;9636;47.382;8.480;2023-03-08T14:31:56;1.30;;;1.20;;
19006;SDS011;9636;47.382;8.480;2023-03-08T14:34:24;1.50;;;1.40;;
19006;SDS011;9636;47.382;8.480;2023-03-08T14:36:53;1.67;;;1.55;;
19006;SDS011;9636;47.382;8.480;2023-03-08T14:39:22;1.37;;;1.27;;
19006;SDS011;9636;47.382;8.480;2023-03-08T14:41:49;1.50;;;1.40;;
19006;SDS011;9636;47.382;8.480;2023-03-08T14:44:17;1.50;;;1.40;;
19006;SDS011;9636;47.382;8.480;2023-03-08T14:46:45;1.50;;;1.40;;
19006;SDS011;9636;47.382;8.480;2023-03-08T14:49:20;1.30;;;1.23;;
19006;SDS011;9636;47.382;8.480;2023-03-08T14:51:48;1.20;;;1.20;;
19006;SDS011;9636;47.382;8.480;2023-03-08T14:54:20;1.63;;;1.40;;
19006;SDS011;9636;47.382;8.480;2023-03-08T14:56:47;1.03;;;1.03;;
19006;SDS011;9636;47.382;8.480;2023-03-08T14:59:15;1.40;;;1.30;;
19006;SDS011;9636;47.382;8.480;2023-03-08T15:01:42;1.43;;;1.33;;
19006;SDS011;9636;47.382;8.480;2023-03-08T15:04:12;1.43;;;1.33;;
19006;SDS011;9636;47.382;8.480;2023-03-08T15:06:42;1.50;;;1.40;;
19006;SDS011;9636;47.382;8.480;2023-03-08T15:09:11;1.50;;;1.40;;
19006;SDS011;9636;47.382;8.480;2023-03-08T15:11:39;1.73;;;1.37;;
19006;SDS011;9636;47.382;8.480;2023-03-08T15:14:07;1.30;;;1.20;;
19006;SDS011;9636;47.382;8.480;2023-03-08T15:16:38;1.33;;;1.23;;